Time;durP1;ratioP1;P1;durP2;ratioP2;P2;SDS_P1;SDS_P2;PMS_P1;PMS_P2;Temp;Humidity;BMP_temperature;BMP_pressure;BME280_temperature;BME280_humidity;BME280_pressure;Samples;Min_cycle;Max_cycle;Signal;HPM_P1;HPM_P2
2021/04/23 00:00:51;;;;;;;;;;;6.20;77.80;;;3.87;56.01;96352.28;10393863;28;2046;-85
2021/04/23 00:18:10;;;;;;;;;;;6.30;77.50;;;4.02;53.15;96344.00;10419840;28;1955;-83
2021/04/23 00:35:09;;;;;;;;;;;;;;;;;;;;;
2021/04/23 00:40:48;;;;;;;;;;;5.90;77.50;;;3.47;54.16;96346.47;10399515;28;2054;-83
2021/04/23 00:46:24;;;;;;;;;;;5.80;77.60;;;3.52;53.70;96343.97;10393750;28;2067;-81
2021/04/23 00:57:53;;;;;;;;;;;6.10;77.80;;;3.48;54.52;96348.91;10421042;28;1831;-86
2021/04/23 01:03:14;;;;;;;;;;;4.60;77.30;;;3.34;54.93;96344.72;10410311;28;2961;-82
2021/04/23 01:13:58;;;;;;;;;;;4.50;78.00;;;3.26;55.98;96352.94;10404845;28;1742;-85
2021/04/23 01:19:27;;;;;;;;;;;4.40;78.80;;;3.13;56.62;96355.66;10393590;28;2030;-85
2021/04/23 01:31:21;;;;;;;;;;;4.20;79.60;;;3.26;55.90;96358.25;10314809;28;1915;-86
2021/04/23 01:36:56;;;;;;;;;;;5.80;80.40;;;3.13;55.81;96361.78;10312258;28;1721;-85
2021/04/23 01:42:21;;;;;;;;;;;5.90;80.40;;;3.06;57.16;96366.34;10287505;28;2086;-84
2021/04/23 01:47:29;;;;;;;;;;;4.30;80.10;;;2.95;57.25;96361.69;10289753;28;2094;-82
2021/04/23 01:52:42;;;;;;;;;;;4.10;80.30;;;2.81;58.08;96362.75;10333776;28;2079;-83
2021/04/23 01:58:02;;;;;;;;;;;4.20;81.10;;;2.72;58.92;96364.81;10399285;28;1887;-85
2021/04/23 02:03:32;;;;;;;;;;;3.90;81.60;;;2.72;58.22;96373.59;10395756;28;2090;-83
2021/04/23 02:14:14;;;;;;;;;;;5.10;82.40;;;2.68;57.75;96379.56;10412283;28;1902;-83
2021/04/23 02:19:34;;;;;;;;;;;4.90;82.10;;;2.64;57.87;96370.38;10407968;28;2166;-84
2021/04/23 02:24:59;;;;;;;;;;;4.70;81.90;;;2.74;58.27;96372.59;10431364;28;2008;-82
2021/04/23 02:30:55;;;;;;;;;;;3.80;81.90;;;2.65;59.12;96370.16;10393803;28;1961;-83
2021/04/23 02:36:19;;;;;;;;;;;3.80;82.30;;;2.57;59.33;96370.38;10415213;28;2008;-83
2021/04/23 02:46:47;;;;;;;;;;;5.70;84.20;;;2.27;60.48;96372.69;10397122;28;2220;-83
2021/04/23 02:52:05;;;;;;;;;;;3.40;83.60;;;2.19;60.41;96369.44;10410420;28;2006;-82
2021/04/23 03:03:08;;;;;;;;;;;4.90;85.50;;;2.03;61.24;96371.47;10424771;28;1789;-84
2021/04/23 03:13:52;;;;;;;;;;;3.20;85.90;;;2.27;61.17;96375.34;10373078;28;2021;-82
2021/04/23 03:24:52;;;;;;;;;;;4.60;86.00;;;2.20;61.84;96379.03;10407567;28;2194;-84
2021/04/23 03:30:00;;;;;;;;;;;3.20;86.10;;;2.08;62.64;96371.69;10412822;28;2289;-84
2021/04/23 03:35:02;;;;;;;;;;;4.30;87.00;;;1.93;64.12;96371.09;10433887;28;2026;-84
2021/04/23 03:40:12;;;;;;;;;;;4.20;88.40;;;1.82;65.62;96361.09;10408870;28;2164;-81
2021/04/23 03:45:24;;;;;;;;;;;;;;;;;;;;;
2021/04/23 03:50:45;;;;;;;;;;;3.70;90.30;;;1.83;66.20;96365.38;10394147;28;2109;-84
2021/04/23 03:55:47;;;;;;;;;;;2.90;90.40;;;1.84;66.73;96372.31;10412963;28;2195;-83
2021/04/23 04:00:49;;;;;;;;;;;3.00;91.00;;;1.78;66.27;96375.78;10400148;28;2363;-83
2021/04/23 04:05:50;;;;;;;;;;;2.90;91.30;;;1.70;66.73;96386.56;10397708;28;2442;-85
2021/04/23 04:10:52;;;;;;;;;;;2.80;91.50;;;1.65;67.59;96395.13;10390053;23;2175;-83
2021/04/23 04:15:55;;;;;;;;;;;2.80;92.20;;;1.60;68.04;96398.41;10395460;28;2130;-83
2021/04/23 04:21:17;;;;;;;;;;;2.90;93.30;;;1.65;68.42;96396.97;10404110;28;2277;-81
2021/04/23 04:26:19;;;;;;;;;;;2.80;93.80;;;1.76;68.51;96405.13;10408653;28;2262;-85
2021/04/23 04:31:22;;;;;;;;;;;1.50;93.90;;;1.99;68.30;96402.09;10423400;28;2117;-85
2021/04/23 04:36:24;;;;;;;;;;;2.90;94.80;;;2.31;67.00;96411.06;10415501;28;2196;-83
2021/04/23 04:41:27;;;;;;;;;;;4.60;95.40;;;2.63;66.04;96421.81;10410231;28;2084;-83
2021/04/23 04:57:43;;;;;;;;;;;4.00;92.70;;;3.99;61.40;96430.38;10397792;28;2125;-83
2021/04/23 05:26:08;;;;;;;;;;;7.00;81.60;;;7.19;48.16;96445.44;10431931;28;1972;-86
2021/04/23 05:37:25;;;;;;;;;;;9.20;78.70;;;7.26;47.37;96456.00;10296711;28;2029;-83
2021/04/23 06:19:58;;;;;;;;;;;10.60;70.90;;;9.21;42.58;96467.13;10210982;29;1930;-84
2021/04/23 06:25:50;;;;;;;;;;;10.20;69.60;;;9.83;41.12;96472.22;10220006;29;1815;-83
2021/04/23 06:37:35;;;;;;;;;;;10.90;67.70;;;10.27;39.34;96474.84;10244485;28;2098;-83
2021/04/23 06:55:43;;;;;;;;;;;11.60;65.20;;;11.07;38.04;96486.53;10285790;28;2039;-84
2021/04/23 07:01:36;;;;;;;;;;;11.90;64.70;;;11.18;37.20;96490.06;10314659;28;2033;-84
2021/04/23 07:12:56;;;;;;;;;;;11.90;63.20;;;10.94;37.37;96492.34;10160907;29;2068;-86
2021/04/23 07:18:56;;;;;;;;;;;;;;;;;;;;;
2021/04/23 07:24:22;;;;;;;;;;;12.10;62.70;;;11.30;35.65;96499.56;10322657;28;2008;-85
2021/04/23 07:29:34;;;;;;;;;;;12.30;61.90;;;10.57;36.17;96509.25;10390423;28;1918;-85
2021/04/23 07:34:39;;;;;;;;;;;12.00;60.70;;;11.38;35.73;96504.47;10389530;28;1754;-81
2021/04/23 07:39:45;;;;;;;;;;;12.10;61.40;;;11.32;35.51;96507.38;10401943;28;2076;-81
2021/04/23 07:44:46;;;;;;;;;;;12.50;60.30;;;10.86;35.82;96508.94;10409594;28;1826;-81
2021/04/23 07:49:57;;;;;;;;;;;12.20;60.00;;;11.30;35.38;96509.53;10406414;28;2005;-79
2021/04/23 07:55:03;;;;;;;;;;;12.40;60.40;;;11.17;35.75;96516.19;10389495;28;1913;-81
2021/04/23 08:00:05;;;;;;;;;;;12.50;60.30;;;11.59;35.82;96518.06;10381648;28;1978;-80
2021/04/23 08:05:08;;;;;;;;;;;12.50;60.90;;;12.23;34.30;96519.69;10370242;28;1936;-79
2021/04/23 08:10:35;;;;;;;;;;;13.00;60.10;;;12.14;33.96;96522.06;10380155;28;1929;-80
2021/04/23 08:15:40;;;;;;;;;;;13.30;58.90;;;11.77;35.30;96523.00;10357613;28;1845;-80
2021/04/23 08:20:51;;;;;;;;;;;12.90;59.10;;;11.66;35.08;96532.09;10368856;28;2045;-84
2021/04/23 08:26:04;;;;;;;;;;;13.00;59.00;;;11.89;34.30;96530.88;10385793;28;1871;-81
2021/04/23 08:31:06;;;;;;;;;;;12.90;58.70;;;11.96;34.06;96531.47;10388666;28;2097;-79
2021/04/23 08:36:08;;;;;;;;;;;13.10;58.40;;;12.04;34.16;96530.13;10377375;28;2066;-80
2021/04/23 08:41:09;;;;;;;;;;;13.30;58.00;;;11.68;35.39;96523.75;10392846;28;1986;-81
2021/04/23 08:46:11;;;;;;;;;;;13.00;58.70;;;12.04;33.98;96524.75;10387352;28;1970;-82
2021/04/23 08:51:13;;;;;;;;;;;13.20;57.70;;;11.50;34.52;96525.00;10383835;28;2047;-80
2021/04/23 08:56:15;;;;;;;;;;;13.20;57.10;;;11.97;33.86;96516.09;10383832;28;1993;-81
2021/04/23 09:01:17;;;;;;;;;;;13.00;57.60;;;12.18;32.47;96520.47;10401503;28;1951;-82
2021/04/23 09:06:20;;;;;;;;;;;13.20;56.40;;;11.96;32.15;96519.84;10372934;28;1749;-80
2021/04/23 09:11:22;;;;;;;;;;;13.30;55.10;;;12.06;32.27;96515.31;10360860;28;2029;-80
2021/04/23 09:16:24;;;;;;;;;;;13.20;55.10;;;12.01;32.03;96527.94;10369096;28;1985;-80
2021/04/23 09:21:26;;;;;;;;;;;13.10;55.20;;;12.80;30.67;96521.41;10369216;28;2053;-80
2021/04/23 09:26:28;;;;;;;;;;;13.50;54.70;;;12.89;30.45;96519.75;10373340;28;1954;-81
2021/04/23 09:31:30;;;;;;;;;;;13.90;54.50;;;12.60;29.88;96516.78;10389989;28;1914;-83
2021/04/23 09:36:32;;;;;;;;;;;13.90;53.60;;;13.04;30.23;96518.94;10367496;28;2009;-80
2021/04/23 09:41:34;;;;;;;;;;;14.00;54.00;;;13.72;28.97;96511.28;10389074;28;1912;-82
2021/04/23 09:46:36;;;;;;;;;;;14.60;53.40;;;13.31;29.48;96518.69;10381674;28;1953;-82
2021/04/23 09:51:41;;;;;;;;;;;14.50;52.70;;;13.71;29.40;96509.69;10381091;28;1869;-82
2021/04/23 09:56:43;;;;;;;;;;;14.70;52.60;;;13.57;28.90;96506.75;10373746;28;1855;-85
2021/04/23 10:01:53;;;;;;;;;;;14.70;51.80;;;13.68;29.66;96504.84;10401645;28;2061;-85
2021/04/23 10:06:58;;;;;;;;;;;14.70;52.60;;;13.91;28.82;96506.91;10396229;28;2343;-83
2021/04/23 10:12:01;;;;;;;;;;;15.00;51.90;;;13.46;29.23;96503.25;10386922;28;2025;-83
2021/04/23 10:17:03;;;;;;;;;;;14.90;51.60;;;13.40;29.21;96509.75;10392967;28;1819;-84
2021/04/23 10:22:06;;;;;;;;;;;14.70;51.80;;;13.56;29.20;96502.44;10377940;28;1962;-85
2021/04/23 10:27:09;;;;;;;;;;;14.60;52.10;;;13.70;27.73;96505.38;10409507;28;1969;-84
2021/04/23 10:32:11;;;;;;;;;;;14.80;50.50;;;13.41;29.06;96499.75;10393677;28;1998;-84
2021/04/23 10:37:13;;;;;;;;;;;14.70;50.60;;;13.49;28.05;96497.31;10371527;28;1830;-82
2021/04/23 10:42:15;;;;;;;;;;;14.70;50.60;;;13.44;27.84;96500.03;10384424;28;2009;-84
2021/04/23 10:47:17;;;;;;;;;;;14.60;50.20;;;13.70;28.04;96486.44;10394420;28;1990;-83
2021/04/23 10:52:18;;;;;;;;;;;14.70;50.40;;;13.92;26.63;96483.38;10389913;28;1850;-83
2021/04/23 10:57:20;;;;;;;;;;;13.60;48.40;;;13.62;27.17;96490.53;10395139;28;1861;-85
2021/04/23 11:02:22;;;;;;;;;;;15.00;48.60;;;13.42;27.41;96477.06;10361451;28;2211;-86
2021/04/23 11:07:24;;;;;;;;;;;14.70;49.20;;;13.65;26.96;96481.06;10383455;28;2086;-86
2021/04/23 11:12:27;;;;;;;;;;;14.80;48.50;;;13.43;26.39;96482.22;10375727;28;1672;-87
2021/04/23 11:17:33;;;;;;;;;;;14.80;47.70;;;13.36;25.92;96476.28;10386621;28;1950;-86
2021/04/23 11:22:37;;;;;;;;;;;14.60;47.70;;;13.50;27.13;96466.53;10358327;28;1993;-88
2021/04/23 11:27:39;;;;;;;;;;;14.60;48.90;;;13.43;26.80;96465.22;10387240;28;2036;-87
2021/04/23 11:32:42;;;;;;;;;;;14.70;48.40;;;13.58;26.42;96469.75;10394248;28;2061;-88
2021/04/23 11:37:44;;;;;;;;;;;14.70;48.10;;;13.62;26.75;96463.53;10373743;28;1886;-83
2021/04/23 11:42:46;;;;;;;;;;;14.70;48.10;;;13.42;27.33;96459.00;10395815;28;1858;-79
2021/04/23 11:47:48;;;;;;;;;;;14.50;48.90;;;13.47;26.55;96467.06;10367885;28;2114;-81
2021/04/23 11:52:50;;;;;;;;;;;14.60;48.40;;;13.51;26.59;96456.53;10395086;28;2033;-82
2021/04/23 11:57:51;;;;;;;;;;;14.70;48.10;;;13.55;26.42;96451.38;10394452;28;1855;-80
2021/04/23 12:02:55;;;;;;;;;;;14.50;47.90;;;13.59;26.19;96452.44;10387215;28;1986;-82
2021/04/23 12:07:56;;;;;;;;;;;14.60;47.90;;;14.23;25.60;96454.28;10379677;28;2375;-81
2021/04/23 12:12:58;;;;;;;;;;;15.00;47.50;;;13.98;26.30;96450.63;10367633;28;1935;-82
2021/04/23 12:18:00;;;;;;;;;;;15.10;47.60;;;14.20;26.24;96452.16;10379778;28;1970;-79
2021/04/23 12:23:02;;;;;;;;;;;15.10;47.70;;;13.98;25.74;96447.13;10362709;28;1811;-83
2021/04/23 12:28:04;;;;;;;;;;;15.20;46.90;;;13.85;25.09;96440.44;10364896;28;2128;-82
2021/04/23 12:33:06;;;;;;;;;;;15.10;46.30;;;14.15;25.92;96449.47;10379270;28;1993;-83
2021/04/23 12:38:08;;;;;;;;;;;15.20;46.80;;;14.16;24.49;96445.69;10376758;28;2022;-79
2021/04/23 12:43:09;;;;;;;;;;;15.40;45.80;;;14.48;23.23;96445.22;10375420;28;1850;-81
2021/04/23 12:48:11;;;;;;;;;;;15.50;44.60;;;14.43;22.64;96439.81;10351262;28;1998;-80
2021/04/23 12:53:13;;;;;;;;;;;15.60;43.60;;;14.63;23.42;96441.59;10371211;28;1947;-83
2021/04/23 12:58:15;;;;;;;;;;;15.60;43.90;;;14.62;22.40;96432.66;10359951;28;2035;-80
2021/04/23 13:03:16;;;;;;;;;;;15.80;43.10;;;14.74;21.60;96435.00;10373611;28;1855;-79
2021/04/23 13:08:18;;;;;;;;;;;15.90;42.20;;;14.83;22.42;96433.31;10372259;28;2105;-85
2021/04/23 13:13:20;;;;;;;;;;;15.80;43.00;;;14.98;22.71;96421.53;10367861;28;1997;-82
2021/04/23 13:18:22;;;;;;;;;;;16.00;43.00;;;14.44;23.20;96420.63;10366932;28;2046;-81
2021/04/23 13:23:24;;;;;;;;;;;15.80;43.10;;;14.51;23.22;96426.56;10365820;28;2028;-83
2021/04/23 13:28:26;;;;;;;;;;;15.70;43.60;;;14.75;22.69;96417.69;10361453;28;1996;-82
2021/04/23 13:33:27;;;;;;;;;;;15.70;43.20;;;14.39;23.82;96412.53;10384719;28;1778;-82
2021/04/23 13:38:29;;;;;;;;;;;15.80;43.80;;;14.69;23.86;96410.69;10369231;28;2058;-81
2021/04/23 13:43:31;;;;;;;;;;;15.70;44.40;;;14.40;23.50;96416.06;10376641;28;1933;-82
2021/04/23 13:48:33;;;;;;;;;;;15.70;43.70;;;14.45;24.31;96408.72;10375634;28;1987;-84
2021/04/23 13:53:35;;;;;;;;;;;15.60;44.40;;;14.48;23.15;96400.03;10389918;28;1986;-81
2021/04/23 13:58:37;;;;;;;;;;;15.60;43.70;;;14.79;23.69;96394.38;10388019;28;2047;-81
2021/04/23 14:03:39;;;;;;;;;;;15.80;44.10;;;14.48;23.74;96405.47;10383340;28;1986;-79
2021/04/23 14:08:41;;;;;;;;;;;15.70;43.90;;;14.39;23.78;96409.84;10362556;28;1911;-82
2021/04/23 14:13:43;;;;;;;;;;;15.50;44.20;;;14.34;24.19;96399.06;10383009;28;2037;-81
2021/04/23 14:18:45;;;;;;;;;;;15.50;44.30;;;14.35;24.26;96395.25;10368507;28;2069;-81
2021/04/23 14:23:47;;;;;;;;;;;15.50;44.90;;;14.56;24.71;96385.91;10388056;28;1889;-82
2021/04/23 14:28:48;;;;;;;;;;;15.60;44.80;;;14.87;23.88;96381.03;10390755;28;1991;-83
2021/04/23 14:33:51;;;;;;;;;;;15.90;44.70;;;15.19;24.33;96382.31;10367743;28;1855;-82
2021/04/23 14:38:53;;;;;;;;;;;16.10;45.10;;;15.47;24.02;96371.72;10367116;28;2023;-82
2021/04/23 14:43:55;;;;;;;;;;;16.40;44.70;;;15.45;23.89;96385.53;10365363;28;1836;-83
2021/04/23 14:48:56;;;;;;;;;;;16.50;44.30;;;15.12;23.41;96374.53;10381610;28;2297;-79
2021/04/23 14:53:58;;;;;;;;;;;16.50;43.30;;;15.12;22.90;96371.03;10385668;28;1934;-82
2021/04/23 14:59:00;;;;;;;;;;;16.30;42.90;;;15.45;23.08;96373.88;10385254;28;1971;-82
2021/04/23 15:04:01;;;;;;;;;;;16.40;43.50;;;15.38;23.38;96374.25;10391525;28;1904;-80
2021/04/23 15:09:03;;;;;;;;;;;16.60;43.30;;;15.45;22.60;96363.84;10361301;28;1914;-83
2021/04/23 15:14:05;;;;;;;;;;;16.50;43.10;;;15.10;22.50;96363.19;10379669;28;2061;-84
2021/04/23 15:19:11;;;;;;;;;;;16.30;42.40;;;15.31;22.47;96365.66;10357851;28;2041;-81
2021/04/23 15:24:12;;;;;;;;;;;16.20;42.60;;;15.48;22.31;96363.28;10371365;28;2125;-80
2021/04/23 15:29:14;;;;;;;;;;;16.40;42.60;;;15.46;22.72;96362.78;10379766;28;1978;-83
2021/04/23 15:34:16;;;;;;;;;;;16.60;42.30;;;15.22;22.45;96359.28;10388403;28;1298;-82
2021/04/23 15:39:18;;;;;;;;;;;16.50;42.20;;;14.82;23.12;96361.31;10378239;28;2041;-81
2021/04/23 15:44:20;;;;;;;;;;;16.00;42.60;;;14.84;23.19;96359.16;10371082;28;2034;-82
2021/04/23 15:49:22;;;;;;;;;;;16.00;43.00;;;14.57;23.57;96362.38;10358108;28;2061;-81
2021/04/23 15:54:23;;;;;;;;;;;15.70;43.40;;;14.41;24.66;96356.25;10374709;28;2283;-82
2021/04/23 15:59:25;;;;;;;;;;;15.60;44.10;;;14.26;24.71;96353.69;10383195;28;2029;-81
2021/04/23 16:04:27;;;;;;;;;;;15.40;44.40;;;14.18;25.17;96346.16;10380248;28;1982;-80
2021/04/23 16:09:29;;;;;;;;;;;15.30;45.10;;;14.11;26.01;96351.09;10373796;28;2393;-82
2021/04/23 16:14:31;;;;;;;;;;;15.20;45.40;;;13.83;25.94;96345.34;10377975;28;2029;-83
2021/04/23 16:19:33;;;;;;;;;;;15.00;45.40;;;13.72;25.91;96350.00;10353980;28;2272;-82
2021/04/23 16:24:35;;;;;;;;;;;14.90;45.50;;;13.79;26.26;96350.47;10375755;28;2052;-82
2021/04/23 16:29:37;;;;;;;;;;;14.80;45.80;;;13.56;26.37;96351.16;10381942;28;2108;-80
2021/04/23 16:34:39;;;;;;;;;;;14.70;46.30;;;13.36;26.99;96343.97;10374424;28;2022;-81
2021/04/23 16:39:40;;;;;;;;;;;14.50;46.40;;;13.51;27.54;96348.50;10376717;28;2092;-82
2021/04/23 16:44:42;;;;;;;;;;;14.50;47.00;;;13.41;27.39;96343.94;10380478;28;2069;-81
2021/04/23 16:49:45;;;;;;;;;;;14.50;46.90;;;13.29;26.82;96348.03;10382583;28;1986;-82
2021/04/23 16:54:47;;;;;;;;;;;14.40;46.80;;;13.18;27.07;96360.75;10370449;28;2033;-81
2021/04/23 16:59:49;;;;;;;;;;;14.30;46.90;;;13.07;27.55;96357.28;10389901;28;1685;-85
2021/04/23 17:04:50;;;;;;;;;;;14.10;47.30;;;13.03;27.08;96363.50;10386741;28;2020;-81
2021/04/23 17:09:52;;;;;;;;;;;14.00;47.20;;;12.97;28.05;96358.09;10363012;28;2100;-86
2021/04/23 17:14:56;;;;;;;;;;;13.90;47.70;;;12.79;27.77;96366.81;10386615;28;2008;-85
2021/04/23 17:19:59;;;;;;;;;;;13.90;47.70;;;12.76;27.96;96364.63;10385638;28;1954;-85
2021/04/23 17:25:02;;;;;;;;;;;13.80;47.80;;;12.65;28.15;96363.03;10364650;28;1832;-85
2021/04/23 17:35:26;;;;;;;;;;;13.60;47.60;;;12.47;28.18;96355.50;10382622;28;1850;-86
2021/04/23 17:40:53;;;;;;;;;;;13.50;48.00;;;12.35;28.11;96367.41;10367491;28;2319;-85
2021/04/23 17:45:59;;;;;;;;;;;13.40;48.00;;;12.25;29.12;96367.38;10374073;28;1701;-84
2021/04/23 17:51:02;;;;;;;;;;;13.30;48.70;;;12.06;29.41;96374.38;10366659;28;1983;-87
2021/04/23 17:56:05;;;;;;;;;;;13.20;48.70;;;12.04;29.16;96371.16;10384545;28;2026;-85
2021/04/23 18:01:09;;;;;;;;;;;13.10;48.90;;;12.01;28.99;96366.28;10371746;28;2066;-83
2021/04/23 18:06:16;;;;;;;;;;;13.00;49.10;;;11.88;29.56;96373.00;10374853;28;1569;-83
2021/04/23 18:11:22;;;;;;;;;;;12.90;49.60;;;11.70;30.21;96381.53;10390635;28;2062;-86
2021/04/23 18:16:27;;;;;;;;;;;12.80;50.10;;;11.59;30.49;96383.41;10393169;28;1901;-85
2021/04/23 18:21:30;;;;;;;;;;;12.70;50.00;;;11.51;30.48;96384.72;10387157;28;2074;-84
2021/04/23 18:26:32;;;;;;;;;;;12.60;50.40;;;11.34;31.63;96386.81;10400324;28;1702;-83
2021/04/23 18:31:38;;;;;;;;;;;12.50;51.00;;;11.34;32.04;96393.03;10372532;28;1972;-84
2021/04/23 18:36:41;;;;;;;;;;;12.40;51.30;;;11.20;32.04;96396.47;10397363;28;1449;-84
2021/04/23 18:41:43;;;;;;;;;;;12.40;51.40;;;11.09;32.06;96406.34;10387900;28;1605;-81
2021/04/23 18:46:45;;;;;;;;;;;12.20;51.60;;;10.95;32.81;96407.91;10370602;28;1566;-81
2021/04/23 18:51:47;;;;;;;;;;;12.20;52.20;;;10.91;32.44;96414.84;10399372;28;1886;-80
2021/04/23 18:56:49;;;;;;;;;;;12.10;52.10;;;10.92;33.33;96419.16;10388271;28;1137;-81
2021/04/23 19:01:50;;;;;;;;;;;12.00;52.90;;;10.99;33.10;96415.16;10397335;28;1697;-81
2021/04/23 19:06:52;;;;;;;;;;;12.00;53.00;;;10.92;33.41;96428.03;10371597;28;1909;-80
2021/04/23 19:11:54;;;;;;;;;;;12.00;52.90;;;10.93;33.74;96423.47;10387758;28;2026;-81
2021/04/23 19:16:56;;;;;;;;;;;12.00;53.20;;;10.77;34.82;96425.25;10366147;28;1988;-80
2021/04/23 19:21:58;;;;;;;;;;;11.90;53.90;;;10.92;34.39;96421.84;10376823;28;2319;-80
2021/04/23 19:27:04;;;;;;;;;;;11.90;54.30;;;10.97;34.83;96424.56;10371126;28;2045;-81
2021/04/23 19:32:05;;;;;;;;;;;12.00;54.70;;;11.16;35.26;96423.06;10368688;28;2119;-79
2021/04/23 19:37:08;;;;;;;;;;;12.20;54.90;;;11.07;35.45;96419.28;10378512;28;1990;-81
2021/04/23 19:42:10;;;;;;;;;;;12.20;55.10;;;10.72;36.32;96425.22;10382426;28;1582;-81
2021/04/23 19:47:11;;;;;;;;;;;12.00;55.50;;;10.46;37.33;96435.78;10366227;28;1960;-81
2021/04/23 19:52:13;;;;;;;;;;;11.60;56.50;;;10.32;37.30;96434.59;10400343;28;2096;-82
2021/04/23 19:57:15;;;;;;;;;;;11.30;57.50;;;9.75;38.53;96438.56;10377376;28;2010;-80
2021/04/23 20:02:17;;;;;;;;;;;11.00;57.60;;;9.77;38.53;96442.88;10414919;28;1939;-80
2021/04/23 20:07:19;;;;;;;;;;;10.90;58.40;;;9.82;39.00;96437.56;10412537;28;1542;-81
2021/04/23 20:12:21;;;;;;;;;;;10.80;58.60;;;9.93;39.38;96441.97;10398028;28;1867;-81
2021/04/23 20:17:23;;;;;;;;;;;11.00;59.30;;;9.94;40.00;96446.28;10380489;28;2061;-81
2021/04/23 20:22:25;;;;;;;;;;;11.00;59.80;;;9.83;39.66;96444.53;10387359;28;2085;-80
2021/04/23 20:27:31;;;;;;;;;;;10.90;59.70;;;10.01;39.81;96438.84;10371846;28;1994;-78
2021/04/23 20:32:33;;;;;;;;;;;11.00;60.20;;;9.60;40.06;96440.25;10374520;28;2047;-80
2021/04/23 20:37:35;;;;;;;;;;;10.70;60.20;;;9.01;41.85;96456.94;10381575;28;1974;-82
2021/04/23 20:42:37;;;;;;;;;;;10.40;60.70;;;8.87;42.29;96450.31;10356228;28;2022;-83
2021/04/23 20:47:39;;;;;;;;;;;10.10;62.10;;;8.63;43.26;96445.13;10372505;28;1998;-82
2021/04/23 20:52:41;;;;;;;;;;;9.90;62.50;;;8.89;43.08;96446.31;10358156;28;2116;-80
2021/04/23 20:57:43;;;;;;;;;;;9.80;63.50;;;8.94;42.75;96453.63;10356373;28;1854;-81
2021/04/23 21:02:45;;;;;;;;;;;9.90;63.60;;;9.26;43.20;96447.63;10372772;28;1867;-81
2021/04/23 21:07:47;;;;;;;;;;;10.70;64.50;;;9.18;42.10;96440.81;10351053;28;1979;-81
2021/04/23 21:12:50;;;;;;;;;;;10.30;63.30;;;8.98;42.33;96441.34;10380629;28;1954;-82
2021/04/23 21:17:52;;;;;;;;;;;10.10;63.10;;;8.70;43.58;96438.78;10361681;28;1933;-83
2021/04/23 21:23:01;;;;;;;;;;;9.90;63.50;;;8.37;43.91;96446.59;10396255;28;1963;-81
2021/04/23 21:28:03;;;;;;;;;;;10.90;64.70;;;8.53;44.34;96434.25;10395010;28;2028;-81
2021/04/23 21:33:05;;;;;;;;;;;9.50;64.90;;;8.60;43.96;96426.88;10375193;28;2011;-81
2021/04/23 21:38:07;;;;;;;;;;;10.50;65.00;;;8.19;44.92;96433.38;10369159;28;1815;-79
2021/04/23 21:43:09;;;;;;;;;;;9.50;64.50;;;8.19;45.14;96438.75;10361240;28;2079;-80
2021/04/23 21:48:10;;;;;;;;;;;10.60;65.60;;;8.10;44.91;96441.03;10350023;28;2284;-82
2021/04/23 21:53:12;;;;;;;;;;;9.20;65.50;;;8.51;44.52;96439.03;10378144;28;1837;-81
2021/04/23 21:58:14;;;;;;;;;;;9.50;66.50;;;8.79;44.18;96427.41;10379788;28;1944;-80
2021/04/23 22:03:16;;;;;;;;;;;9.60;65.70;;;8.56;44.62;96425.72;10368504;28;1870;-81
2021/04/23 22:08:18;;;;;;;;;;;10.60;65.70;;;8.64;43.83;96430.66;10380730;28;2067;-80
2021/04/23 22:13:39;;;;;;;;;;;9.60;65.40;;;8.57;44.26;96427.34;10381078;28;1901;-80
2021/04/23 22:18:41;;;;;;;;;;;10.50;65.50;;;8.06;45.11;96423.00;10368455;28;1966;-80
2021/04/23 22:23:43;;;;;;;;;;;9.40;65.40;;;8.32;44.77;96419.69;10385850;28;1949;-82
2021/04/23 22:28:46;;;;;;;;;;;9.30;65.90;;;8.46;44.20;96414.03;10375737;28;2014;-81
2021/04/23 22:33:48;;;;;;;;;;;9.70;66.00;;;8.10;44.83;96419.59;10408265;28;1953;-83
2021/04/23 22:38:50;;;;;;;;;;;9.30;65.70;;;8.41;45.24;96420.13;10402191;28;1893;-83
2021/04/23 22:43:54;;;;;;;;;;;9.40;66.20;;;8.04;45.29;96412.53;10394820;28;1549;-83
2021/04/23 22:48:56;;;;;;;;;;;9.30;65.90;;;7.66;47.09;96425.75;10407112;28;2044;-82
2021/04/23 22:53:58;;;;;;;;;;;8.90;66.80;;;7.49;48.00;96418.47;10390400;28;1619;-82
2021/04/23 22:59:02;;;;;;;;;;;8.70;68.10;;;7.80;46.36;96408.34;10370120;28;1974;-81
2021/04/23 23:04:04;;;;;;;;;;;8.70;68.30;;;8.03;46.13;96402.88;10376173;28;1999;-81
2021/04/23 23:09:05;;;;;;;;;;;9.80;68.50;;;8.11;45.62;96402.47;10383184;28;1970;-80
2021/04/23 23:14:08;;;;;;;;;;;8.90;67.90;;;8.08;46.24;96400.28;10364978;28;1910;-82
2021/04/23 23:19:10;;;;;;;;;;;9.00;67.70;;;7.97;46.60;96393.13;10377240;28;1973;-80
2021/04/23 23:24:12;;;;;;;;;;;9.00;67.40;;;7.62;47.31;96387.94;10369304;28;1972;-82
2021/04/23 23:29:14;;;;;;;;;;;8.90;67.80;;;7.76;47.11;96380.44;10375667;28;1962;-81
2021/04/23 23:34:15;;;;;;;;;;;8.70;68.90;;;7.83;48.14;96375.75;10365568;28;2069;-80
2021/04/23 23:39:17;;;;;;;;;;;8.80;69.00;;;7.28;48.22;96376.34;10382834;28;1797;-82
2021/04/23 23:44:19;;;;;;;;;;;9.20;69.10;;;6.79;50.79;96375.88;10394830;28;2065;-79
2021/04/23 23:49:21;;;;;;;;;;;8.20;70.20;;;6.74;51.33;96373.09;10374303;28;2080;-80
2021/04/23 23:54:23;;;;;;;;;;;8.50;72.40;;;7.10;50.54;96371.16;10372060;28;2077;-80
2021/04/23 23:59:24;;;;;;;;;;;7.90;72.40;;;7.16;51.04;96364.88;10378448;28;1993;-81
